Time;durP1;ratioP1;P1;durP2;ratioP2;P2;SDS_P1;SDS_P2;PMS_P1;PMS_P2;Temp;Humidity;BMP_temperature;BMP_pressure;BME280_temperature;BME280_humidity;BME280_pressure;Samples;Min_cycle;Max_cycle;Signal;HPM_P1;HPM_P2
2022/07/23 00:00:55;;;;;;;59.80;50.97;;;23.80;64.10;;;;;;4994139;27;96325;-69
2022/07/23 00:03:21;;;;;;;59.45;51.17;;;23.80;64.20;;;;;;5001347;27;94971;-70
2022/07/23 00:05:47;;;;;;;59.55;51.08;;;23.80;64.20;;;;;;5007821;27;98570;-70
2022/07/23 00:08:12;;;;;;;59.63;51.05;;;23.80;64.20;;;;;;4972361;27;99127;-69
2022/07/23 00:10:38;;;;;;;59.72;51.10;;;23.80;64.30;;;;;;4986115;27;98096;-69
2022/07/23 00:13:04;;;;;;;59.97;51.30;;;23.80;64.30;;;;;;4986525;27;94861;-69
2022/07/23 00:15:30;;;;;;;60.67;51.42;;;23.80;64.20;;;;;;4978078;27;102026;-70
2022/07/23 00:17:55;;;;;;;59.67;51.03;;;23.80;64.20;;;;;;4984112;27;98206;-70
2022/07/23 00:20:21;;;;;;;59.38;51.03;;;23.80;65.00;;;;;;4986146;27;97596;-70
2022/07/23 00:22:53;;;;;;;59.20;50.95;;;23.80;64.30;;;;;;4982889;27;95432;-69
2022/07/23 00:25:19;;;;;;;59.97;50.85;;;23.70;64.20;;;;;;4984925;27;95536;-69
2022/07/23 00:27:45;;;;;;;58.88;51.00;;;23.80;64.20;;;;;;4991119;27;99152;-69
2022/07/23 00:30:11;;;;;;;59.20;50.83;;;23.70;64.20;;;;;;4985813;27;95487;-70
2022/07/23 00:32:51;;;;;;;59.05;50.63;;;23.80;64.30;;;;;;4982621;27;95957;-69
2022/07/23 00:35:20;;;;;;;59.65;50.92;;;23.80;64.30;;;;;;4990370;27;97072;-69
2022/07/23 00:37:46;;;;;;;59.17;50.83;;;23.70;64.30;;;;;;4981303;27;95662;-70
2022/07/23 00:40:12;;;;;;;59.63;50.92;;;23.70;64.30;;;;;;4988402;27;97271;-69
2022/07/23 00:42:38;;;;;;;59.13;50.67;;;23.70;64.40;;;;;;5005542;27;95823;-70
2022/07/23 00:45:04;;;;;;;59.63;50.72;;;23.70;64.30;;;;;;4994649;27;95782;-69
2022/07/23 00:47:30;;;;;;;58.78;50.53;;;23.70;64.40;;;;;;4973061;27;97359;-69
2022/07/23 00:49:56;;;;;;;59.08;50.85;;;23.70;64.40;;;;;;4988306;27;95662;-69
2022/07/23 00:52:22;;;;;;;59.15;50.67;;;23.60;64.20;;;;;;4998215;27;95132;-69
2022/07/23 00:54:48;;;;;;;59.83;51.08;;;23.70;64.30;;;;;;4994326;27;95150;-70
2022/07/23 00:57:14;;;;;;;59.42;50.90;;;23.60;64.30;;;;;;4984658;27;95789;-69
2022/07/23 00:59:40;;;;;;;59.67;51.30;;;23.60;64.20;;;;;;4998118;27;97669;-70
2022/07/23 01:02:05;;;;;;;59.78;51.05;;;23.60;64.30;;;;;;4998521;27;95280;-70
2022/07/23 01:04:31;;;;;;;59.90;51.10;;;23.60;64.20;;;;;;4967057;27;95522;-70
2022/07/23 01:06:57;;;;;;;59.55;50.75;;;23.60;64.20;;;;;;4975476;27;98453;-69
2022/07/23 01:09:23;;;;;;;59.05;50.85;;;23.60;64.30;;;;;;4984935;27;96282;-68
2022/07/23 01:11:51;;;;;;;59.35;50.83;;;23.60;64.40;;;;;;4976124;27;97085;-69
2022/07/23 01:14:18;;;;;;;59.00;50.78;;;23.60;64.50;;;;;;4963650;27;97740;-70
2022/07/23 01:16:45;;;;;;;59.92;51.08;;;23.50;64.50;;;;;;4963334;27;100571;-69
2022/07/23 01:19:12;;;;;;;60.38;50.83;;;23.50;64.30;;;;;;4985779;27;95213;-69
2022/07/23 01:21:41;;;;;;;59.97;50.95;;;23.50;64.30;;;;;;4993674;27;100523;-70
2022/07/23 01:24:07;;;;;;;59.30;50.80;;;23.50;64.40;;;;;;4979202;27;95427;-69
2022/07/23 01:26:33;;;;;;;58.72;50.72;;;23.50;64.40;;;;;;4993073;27;99369;-69
2022/07/23 01:28:58;;;;;;;59.13;50.88;;;23.50;64.30;;;;;;4982095;27;96226;-70
2022/07/23 01:31:24;;;;;;;60.17;50.80;;;23.50;64.30;;;;;;4998242;27;102126;-70
2022/07/23 01:33:50;;;;;;;59.28;50.65;;;23.50;64.30;;;;;;4987675;27;95807;-69
2022/07/23 01:36:16;;;;;;;58.95;50.85;;;23.50;64.50;;;;;;4977043;27;95712;-69
2022/07/23 01:38:41;;;;;;;59.13;51.03;;;23.50;64.40;;;;;;5000836;27;96896;-69
2022/07/23 01:41:07;;;;;;;59.17;50.75;;;23.50;64.40;;;;;;5009977;27;95754;-69
2022/07/23 01:43:33;;;;;;;59.35;50.70;;;23.50;64.40;;;;;;4993614;27;94718;-69
2022/07/23 01:45:58;;;;;;;59.58;50.70;;;23.50;64.40;;;;;;4998440;27;95488;-69
2022/07/23 01:48:24;;;;;;;59.58;50.88;;;23.50;64.50;;;;;;5009331;27;95526;-69
2022/07/23 01:50:49;;;;;;;58.70;50.50;;;23.40;64.40;;;;;;4992208;27;100551;-70
2022/07/23 01:53:15;;;;;;;59.00;50.75;;;23.40;64.30;;;;;;4988607;27;94945;-70
2022/07/23 01:55:42;;;;;;;58.80;50.47;;;23.40;64.50;;;;;;4989590;27;98681;-69
2022/07/23 01:58:07;;;;;;;59.35;50.60;;;23.40;64.50;;;;;;5003337;27;96109;-70
2022/07/23 02:00:33;;;;;;;59.05;50.42;;;23.40;64.50;;;;;;4992514;27;101380;-69
2022/07/23 02:02:59;;;;;;;58.97;50.85;;;23.40;64.60;;;;;;4998981;27;97863;-70
2022/07/23 02:05:25;;;;;;;59.35;50.80;;;23.40;64.60;;;;;;4996875;27;97504;-69
2022/07/23 02:07:51;;;;;;;59.13;50.67;;;23.40;65.30;;;;;;4982534;27;98881;-69
2022/07/23 02:10:17;;;;;;;59.83;50.63;;;23.40;64.40;;;;;;4983483;27;94770;-69
2022/07/23 02:12:43;;;;;;;59.08;50.30;;;23.40;64.50;;;;;;4995717;27;99763;-69
2022/07/23 02:15:09;;;;;;;58.90;50.65;;;23.40;64.50;;;;;;4977400;27;96019;-69
2022/07/23 02:17:35;;;;;;;58.80;50.55;;;23.40;64.50;;;;;;4992312;27;98110;-69
2022/07/23 02:20:00;;;;;;;58.78;50.60;;;23.30;64.40;;;;;;4971345;27;96679;-69
2022/07/23 02:22:26;;;;;;;59.95;50.25;;;23.30;64.40;;;;;;4996724;27;95384;-69
2022/07/23 02:24:52;;;;;;;58.78;50.22;;;23.30;64.60;;;;;;5001275;27;95978;-70
2022/07/23 02:27:17;;;;;;;59.30;50.55;;;23.30;64.50;;;;;;4997422;27;96145;-70
2022/07/23 02:29:43;;;;;;;58.92;50.55;;;23.30;64.50;;;;;;5005262;27;95240;-70
2022/07/23 02:32:09;;;;;;;58.60;50.53;;;23.30;64.50;;;;;;4996815;27;94855;-69
2022/07/23 02:34:34;;;;;;;58.78;50.55;;;23.30;64.40;;;;;;4995891;27;98735;-70
2022/07/23 02:37:00;;;;;;;59.30;50.78;;;23.30;64.50;;;;;;5009539;27;95024;-69
2022/07/23 02:39:27;;;;;;;59.28;50.65;;;23.30;64.50;;;;;;4979958;27;95314;-71
2022/07/23 02:41:52;;;;;;;58.90;50.45;;;23.30;64.50;;;;;;4976467;27;96727;-69
2022/07/23 02:44:18;;;;;;;59.50;50.58;;;23.30;64.50;;;;;;4999426;27;96568;-69
2022/07/23 02:46:43;;;;;;;58.60;50.63;;;23.20;64.50;;;;;;4992976;27;96120;-69
2022/07/23 02:49:09;;;;;;;58.63;50.42;;;23.30;64.50;;;;;;5010337;27;95290;-69
2022/07/23 02:51:35;;;;;;;59.00;50.33;;;23.20;64.40;;;;;;4991958;27;96674;-70
2022/07/23 02:54:00;;;;;;;59.13;50.40;;;23.20;64.50;;;;;;5007579;27;95576;-70
2022/07/23 02:56:26;;;;;;;58.42;50.20;;;23.30;64.50;;;;;;4997427;27;97333;-69
2022/07/23 02:58:51;;;;;;;58.83;50.55;;;23.20;64.60;;;;;;4996536;27;95128;-69
2022/07/23 03:01:17;;;;;;;58.65;50.58;;;23.20;64.40;;;;;;4999090;27;100015;-69
2022/07/23 03:03:43;;;;;;;59.55;50.65;;;23.20;64.40;;;;;;4974117;27;95096;-70
2022/07/23 03:06:08;;;;;;;59.60;50.63;;;23.20;64.40;;;;;;4979409;27;103009;-68
2022/07/23 03:08:34;;;;;;;58.65;50.38;;;23.20;64.50;;;;;;4990548;27;95921;-69
2022/07/23 03:10:59;;;;;;;59.28;50.13;;;23.20;64.40;;;;;;4989563;27;98241;-69
2022/07/23 03:13:25;;;;;;;58.80;50.47;;;23.20;64.30;;;;;;4986193;27;97100;-70
2022/07/23 03:15:51;;;;;;;58.65;50.65;;;23.20;64.40;;;;;;4990350;27;97810;-69
2022/07/23 03:18:16;;;;;;;58.53;50.47;;;23.20;64.40;;;;;;4988374;27;103513;-70
2022/07/23 03:20:42;;;;;;;58.47;50.65;;;23.20;64.80;;;;;;4992336;27;95157;-71
2022/07/23 03:23:08;;;;;;;58.03;50.42;;;23.10;64.30;;;;;;4957434;27;96139;-69
2022/07/23 03:25:33;;;;;;;59.08;50.70;;;23.10;64.30;;;;;;4994959;27;94276;-69
2022/07/23 03:27:59;;;;;;;58.97;50.63;;;23.10;64.30;;;;;;4977334;27;96249;-69
2022/07/23 03:30:24;;;;;;;59.35;50.85;;;23.20;64.30;;;;;;5004279;27;95679;-69
2022/07/23 03:32:50;;;;;;;59.70;50.45;;;23.10;64.30;;;;;;4999607;27;96534;-69
2022/07/23 03:35:16;;;;;;;58.67;50.47;;;23.10;64.30;;;;;;4993512;27;97318;-69
2022/07/23 03:37:41;;;;;;;58.78;50.75;;;23.20;64.30;;;;;;4997801;27;95566;-69
2022/07/23 03:40:07;;;;;;;58.40;50.17;;;23.10;64.20;;;;;;5011021;27;94963;-69
2022/07/23 03:42:33;;;;;;;59.72;50.58;;;23.10;64.20;;;;;;5005119;27;97131;-69
2022/07/23 03:44:59;;;;;;;59.58;50.13;;;23.10;64.20;;;;;;4987888;27;95786;-69
2022/07/23 03:47:24;;;;;;;58.13;50.15;;;23.10;64.40;;;;;;4999947;27;96022;-69
2022/07/23 03:49:50;;;;;;;59.05;50.45;;;23.10;64.40;;;;;;4984029;27;99391;-69
2022/07/23 03:52:16;;;;;;;58.53;50.45;;;23.10;64.30;;;;;;4990713;27;101024;-69
2022/07/23 03:54:41;;;;;;;58.88;50.55;;;23.10;64.30;;;;;;4986828;27;103550;-70
2022/07/23 03:57:07;;;;;;;58.83;50.33;;;23.10;64.30;;;;;;5001458;27;95904;-68
2022/07/23 03:59:33;;;;;;;58.65;50.53;;;23.10;64.30;;;;;;4991525;27;95588;-69
2022/07/23 04:01:58;;;;;;;58.05;50.35;;;23.10;64.30;;;;;;4973696;28;102377;-69
2022/07/23 04:04:24;;;;;;;58.90;50.28;;;23.10;64.20;;;;;;4993915;27;95026;-69
2022/07/23 04:06:49;;;;;;;58.17;50.05;;;23.00;64.20;;;;;;4964301;27;97273;-69
2022/07/23 04:09:15;;;;;;;58.15;50.08;;;23.00;64.10;;;;;;4999926;27;96799;-69
2022/07/23 04:11:41;;;;;;;60.20;50.70;;;23.10;64.20;;;;;;4984027;27;99600;-69
2022/07/23 04:14:07;;;;;;;57.88;50.05;;;23.10;64.00;;;;;;4984812;27;101221;-69
2022/07/23 04:16:32;;;;;;;58.88;50.58;;;23.10;64.00;;;;;;4977495;27;95815;-69
2022/07/23 04:18:58;;;;;;;59.53;50.28;;;23.00;63.90;;;;;;4991037;27;95664;-69
2022/07/23 04:21:24;;;;;;;58.97;50.35;;;23.00;63.80;;;;;;4994713;27;98101;-69
2022/07/23 04:23:50;;;;;;;58.25;50.05;;;23.00;63.90;;;;;;4985012;27;96386;-69
2022/07/23 04:26:18;;;;;;;59.20;50.33;;;23.00;64.00;;;;;;4991056;27;94788;-68
2022/07/23 04:28:44;;;;;;;60.05;50.45;;;23.00;63.90;;;;;;5000307;27;96018;-69
2022/07/23 04:31:10;;;;;;;58.97;50.15;;;23.10;64.00;;;;;;4998114;27;100505;-69
2022/07/23 04:33:35;;;;;;;58.28;50.33;;;23.10;63.80;;;;;;4981242;27;95619;-69
2022/07/23 04:36:01;;;;;;;58.35;50.13;;;23.10;63.80;;;;;;5000023;27;95138;-69
2022/07/23 04:38:26;;;;;;;58.30;50.35;;;23.10;63.80;;;;;;4992160;27;94514;-69
2022/07/23 04:40:52;;;;;;;58.42;50.33;;;23.10;63.70;;;;;;4980983;27;95171;-69
2022/07/23 04:43:19;;;;;;;58.63;50.00;;;23.20;64.40;;;;;;4999393;27;96770;-69
2022/07/23 04:45:44;;;;;;;58.08;49.92;;;23.10;63.60;;;;;;5001927;27;96316;-69
2022/07/23 04:48:10;;;;;;;58.25;50.17;;;23.10;63.50;;;;;;4985236;27;102561;-70
2022/07/23 04:50:35;;;;;;;58.30;50.47;;;23.10;63.40;;;;;;4994471;27;99002;-70
2022/07/23 04:53:01;;;;;;;58.53;50.22;;;23.10;63.40;;;;;;4989535;27;94641;-68
2022/07/23 04:55:27;;;;;;;58.05;50.10;;;23.10;63.40;;;;;;4965303;27;96674;-69
2022/07/23 04:57:52;;;;;;;58.70;50.25;;;23.20;63.50;;;;;;4990256;27;95281;-69
2022/07/23 05:00:18;;;;;;;57.95;49.80;;;23.20;63.40;;;;;;4989452;27;103323;-69
2022/07/23 05:02:43;;;;;;;58.70;50.13;;;23.20;63.30;;;;;;4981343;27;96039;-69
2022/07/23 05:05:09;;;;;;;57.83;49.95;;;23.20;63.40;;;;;;5001163;27;95048;-69
2022/07/23 05:07:35;;;;;;;58.95;50.25;;;23.10;63.20;;;;;;4983230;27;98993;-69
2022/07/23 05:10:00;;;;;;;58.88;50.00;;;23.20;63.40;;;;;;4977624;27;102010;-69
2022/07/23 05:12:26;;;;;;;58.40;50.17;;;23.20;63.30;;;;;;4979721;27;98806;-69
2022/07/23 05:14:52;;;;;;;58.35;50.03;;;23.10;63.20;;;;;;4983532;27;95219;-70
2022/07/23 05:17:18;;;;;;;57.88;50.08;;;23.20;63.10;;;;;;4977313;27;95347;-69
2022/07/23 05:19:43;;;;;;;58.15;49.90;;;23.20;63.10;;;;;;4984324;27;99063;-69
2022/07/23 05:22:09;;;;;;;58.13;50.17;;;23.30;63.00;;;;;;5000968;27;95103;-69
2022/07/23 05:24:35;;;;;;;58.25;50.10;;;23.30;62.80;;;;;;4988537;27;94733;-69
2022/07/23 05:27:00;;;;;;;58.22;50.10;;;23.30;62.80;;;;;;4986003;27;94606;-69
2022/07/23 05:29:26;;;;;;;58.33;50.15;;;23.30;62.80;;;;;;4989145;27;97442;-69
2022/07/23 05:31:51;;;;;;;57.60;49.83;;;23.30;62.80;;;;;;5000459;27;94776;-69
2022/07/23 05:34:17;;;;;;;58.42;50.03;;;23.30;62.60;;;;;;5002365;27;95663;-69
2022/07/23 05:36:43;;;;;;;59.35;50.28;;;23.30;62.50;;;;;;4992629;27;97239;-70
2022/07/23 05:39:09;;;;;;;58.25;50.08;;;23.30;62.40;;;;;;5012116;27;96158;-69
2022/07/23 05:41:34;;;;;;;59.40;50.33;;;23.30;62.50;;;;;;4996295;27;95124;-70
2022/07/23 05:44:00;;;;;;;58.38;50.45;;;23.30;62.40;;;;;;4999297;27;94980;-69
2022/07/23 05:46:25;;;;;;;58.63;49.90;;;23.30;62.50;;;;;;4971140;27;98916;-68
2022/07/23 05:48:51;;;;;;;58.45;50.10;;;23.30;62.50;;;;;;4984427;27;99614;-69
2022/07/23 05:51:23;;;;;;;59.10;50.22;;;23.30;62.50;;;;;;4972697;27;100148;-69
2022/07/23 05:53:49;;;;;;;58.25;50.45;;;23.30;62.50;;;;;;4990352;27;98624;-69
2022/07/23 05:56:15;;;;;;;58.30;50.00;;;23.30;62.50;;;;;;4990278;27;104685;-69
2022/07/23 05:58:41;;;;;;;59.85;50.45;;;23.40;62.30;;;;;;5003541;27;98644;-70
2022/07/23 06:01:07;;;;;;;59.97;50.22;;;23.30;62.40;;;;;;5001502;27;96637;-68
2022/07/23 06:03:33;;;;;;;59.55;50.40;;;23.30;62.30;;;;;;4992274;27;101137;-69
2022/07/23 06:05:58;;;;;;;58.67;50.22;;;23.40;62.50;;;;;;4996019;27;98322;-69
2022/07/23 06:08:24;;;;;;;58.30;50.00;;;23.30;62.40;;;;;;4983252;27;95569;-69
2022/07/23 06:10:50;;;;;;;58.60;50.25;;;23.40;62.30;;;;;;4996303;27;95158;-68
2022/07/23 06:13:17;;;;;;;59.35;50.15;;;23.40;62.20;;;;;;4994929;27;103966;-69
2022/07/23 06:15:43;;;;;;;58.90;50.35;;;23.40;63.00;;;;;;4992787;27;94787;-69
2022/07/23 06:18:09;;;;;;;58.42;50.28;;;23.40;62.10;;;;;;4985355;27;98701;-69
2022/07/23 06:20:35;;;;;;;58.28;50.10;;;23.40;62.20;;;;;;4987695;27;95610;-69
2022/07/23 06:23:00;;;;;;;58.45;50.17;;;23.40;62.00;;;;;;4993646;27;96305;-69
2022/07/23 06:25:26;;;;;;;58.42;50.13;;;23.40;62.10;;;;;;5002850;27;96592;-69
2022/07/23 06:27:52;;;;;;;58.75;50.15;;;23.40;62.10;;;;;;4997939;27;101170;-69
2022/07/23 06:30:18;;;;;;;58.60;50.03;;;23.50;62.00;;;;;;4980027;27;98348;-69
2022/07/23 06:32:47;;;;;;;58.55;49.95;;;23.50;61.80;;;;;;4976409;27;95622;-69
2022/07/23 06:35:13;;;;;;;58.80;50.00;;;23.50;61.80;;;;;;4992511;27;95306;-68
2022/07/23 06:37:38;;;;;;;58.38;50.05;;;23.50;61.80;;;;;;5004864;27;101822;-69
2022/07/23 06:40:05;;;;;;;58.33;50.20;;;23.50;61.60;;;;;;4999939;27;98828;-70
2022/07/23 06:42:30;;;;;;;58.25;49.83;;;23.50;61.70;;;;;;4986083;27;95399;-69
2022/07/23 06:44:56;;;;;;;60.45;50.17;;;23.50;61.40;;;;;;4998376;27;96885;-69
2022/07/23 06:47:21;;;;;;;58.33;49.92;;;23.50;61.40;;;;;;4990330;27;97773;-69
2022/07/23 06:49:47;;;;;;;59.15;50.05;;;23.60;61.30;;;;;;4996272;27;95247;-69
2022/07/23 06:52:13;;;;;;;58.78;50.47;;;23.60;61.20;;;;;;4990638;27;95957;-69
2022/07/23 06:54:38;;;;;;;59.25;50.22;;;23.60;60.90;;;;;;4997952;27;95353;-69
2022/07/23 06:57:04;;;;;;;59.20;50.20;;;23.60;60.90;;;;;;4986010;27;101385;-69
2022/07/23 06:59:29;;;;;;;58.83;50.35;;;23.60;60.80;;;;;;4982545;27;96554;-69
2022/07/23 07:01:55;;;;;;;58.88;50.20;;;23.70;60.80;;;;;;5002581;27;95897;-69
2022/07/23 07:04:21;;;;;;;59.58;50.35;;;23.60;60.60;;;;;;4990538;27;99225;-69
2022/07/23 07:06:46;;;;;;;59.13;50.55;;;23.70;60.80;;;;;;4981913;27;98858;-69
2022/07/23 07:09:12;;;;;;;60.33;50.75;;;23.70;60.30;;;;;;4988266;27;95484;-69
2022/07/23 07:11:38;;;;;;;58.78;50.30;;;23.70;60.20;;;;;;4999368;27;98326;-69
2022/07/23 07:14:04;;;;;;;59.03;50.60;;;23.70;60.30;;;;;;4983553;27;95184;-69
2022/07/23 07:16:30;;;;;;;58.97;50.33;;;23.70;60.10;;;;;;4991210;27;101874;-69
2022/07/23 07:18:55;;;;;;;58.83;50.45;;;23.70;60.20;;;;;;5000701;27;95388;-69
2022/07/23 07:21:21;;;;;;;58.75;50.28;;;23.70;60.00;;;;;;4977297;27;94827;-69
2022/07/23 07:23:46;;;;;;;60.10;50.35;;;23.70;60.30;;;;;;4988197;27;96299;-68
2022/07/23 07:26:12;;;;;;;59.08;50.17;;;23.70;60.40;;;;;;4992044;27;102325;-68
2022/07/23 07:28:38;;;;;;;59.28;50.25;;;23.80;61.20;;;;;;4982379;27;99771;-69
2022/07/23 07:31:03;;;;;;;60.50;50.45;;;23.80;60.50;;;;;;4980954;27;100015;-69
2022/07/23 07:33:29;;;;;;;60.80;50.75;;;23.80;60.20;;;;;;5001679;27;95068;-69
2022/07/23 07:35:55;;;;;;;62.28;51.53;;;23.90;60.50;;;;;;5004565;27;102772;-69
2022/07/23 07:38:20;;;;;;;61.38;51.90;;;23.90;60.40;;;;;;4978462;27;96870;-69
2022/07/23 07:40:46;;;;;;;62.55;52.15;;;23.90;60.10;;;;;;5012803;27;95509;-70
2022/07/23 07:43:12;;;;;;;63.65;52.33;;;23.90;60.10;;;;;;4986072;27;98427;-69
2022/07/23 07:45:37;;;;;;;61.40;52.22;;;23.90;60.10;;;;;;4991479;27;96097;-69
2022/07/23 07:48:03;;;;;;;65.13;52.35;;;24.00;60.70;;;;;;4987986;27;95448;-69
2022/07/23 07:50:29;;;;;;;63.90;52.47;;;24.00;60.20;;;;;;4988169;27;95642;-69
2022/07/23 07:52:55;;;;;;;63.35;52.45;;;24.00;60.30;;;;;;5019400;27;94256;-69
2022/07/23 07:55:20;;;;;;;62.70;52.47;;;24.00;60.30;;;;;;4976807;27;101845;-69
2022/07/23 07:57:46;;;;;;;63.72;53.03;;;24.00;60.20;;;;;;4978270;27;96735;-69
2022/07/23 08:00:12;;;;;;;63.47;52.67;;;24.00;60.30;;;;;;4975281;27;97108;-70
2022/07/23 08:02:47;;;;;;;63.63;53.03;;;24.00;60.20;;;;;;4953681;27;96069;-70
2022/07/23 08:05:13;;;;;;;63.97;53.00;;;24.00;60.20;;;;;;5000667;27;95306;-67
2022/07/23 08:07:39;;;;;;;63.17;52.97;;;24.10;60.10;;;;;;4996293;27;95807;-69
2022/07/23 08:10:08;;;;;;;62.80;52.40;;;24.10;60.00;;;;;;4990432;27;94694;-69
2022/07/23 08:12:41;;;;;;;62.72;52.60;;;24.10;60.10;;;;;;4990935;27;95226;-68
2022/07/23 08:15:07;;;;;;;64.15;52.45;;;24.30;59.60;;;;;;5005430;27;96562;-69
2022/07/23 08:17:33;;;;;;;64.00;52.63;;;24.20;59.70;;;;;;4993519;27;94898;-70
2022/07/23 08:19:58;;;;;;;63.70;52.63;;;24.30;59.60;;;;;;4990369;27;97502;-68
2022/07/23 08:22:24;;;;;;;62.50;52.55;;;24.40;59.40;;;;;;4999324;27;95820;-69
2022/07/23 08:24:50;;;;;;;62.80;52.33;;;24.50;59.10;;;;;;5000331;27;101401;-69
2022/07/23 08:27:15;;;;;;;63.28;52.50;;;24.60;59.00;;;;;;4981546;27;96131;-69
2022/07/23 08:29:41;;;;;;;64.20;51.95;;;24.60;58.90;;;;;;4990672;27;96128;-70
2022/07/23 08:32:06;;;;;;;62.55;51.85;;;24.60;58.80;;;;;;4998608;27;95476;-70
2022/07/23 08:34:32;;;;;;;62.55;51.75;;;24.70;58.80;;;;;;4983976;27;101922;-70
2022/07/23 08:36:57;;;;;;;62.35;51.88;;;24.70;58.80;;;;;;4986142;27;101315;-70
2022/07/23 08:39:23;;;;;;;61.20;51.75;;;24.70;58.80;;;;;;4973533;27;99671;-69
2022/07/23 08:41:50;;;;;;;62.15;51.80;;;24.70;58.70;;;;;;4990171;27;93977;-69
2022/07/23 08:44:17;;;;;;;62.40;52.05;;;24.70;58.80;;;;;;4991460;27;95557;-70
2022/07/23 08:46:43;;;;;;;63.45;52.08;;;24.70;58.80;;;;;;4954915;27;98638;-70
2022/07/23 08:49:09;;;;;;;64.03;52.10;;;24.70;58.80;;;;;;4977588;27;97393;-68
2022/07/23 08:51:35;;;;;;;63.60;52.03;;;24.70;59.00;;;;;;4968951;27;96523;-69
2022/07/23 08:54:01;;;;;;;64.20;52.22;;;24.70;58.70;;;;;;4979875;27;104319;-70
2022/07/23 08:56:27;;;;;;;64.30;52.42;;;24.50;59.00;;;;;;4984286;27;96116;-69
2022/07/23 08:58:56;;;;;;;66.05;52.92;;;24.50;59.10;;;;;;4974899;27;99213;-68
2022/07/23 09:01:21;;;;;;;65.13;52.83;;;24.50;59.70;;;;;;4990281;27;96542;-70
2022/07/23 09:03:47;;;;;;;67.68;52.83;;;24.50;59.10;;;;;;4971608;27;105192;-68
2022/07/23 09:06:13;;;;;;;66.68;53.05;;;24.60;58.50;;;;;;4993910;27;96926;-69
2022/07/23 09:08:43;;;;;;;68.93;53.38;;;24.60;58.80;;;;;;4982194;27;105343;-70
2022/07/23 09:11:11;;;;;;;66.25;52.95;;;24.70;58.60;;;;;;4993807;27;96485;-69
2022/07/23 09:13:38;;;;;;;67.07;53.88;;;24.70;58.60;;;;;;4989278;27;96433;-70
2022/07/23 09:16:12;;;;;;;65.90;53.17;;;24.80;58.50;;;;;;4966669;27;101622;-67
2022/07/23 09:18:44;;;;;;;68.47;53.60;;;24.80;58.50;;;;;;4992377;27;96202;-69
2022/07/23 09:21:17;;;;;;;65.00;52.95;;;24.80;58.50;;;;;;4988315;27;96193;-69
2022/07/23 09:23:45;;;;;;;67.57;52.95;;;24.80;58.30;;;;;;4993256;27;95560;-69
2022/07/23 09:26:26;;;;;;;66.35;53.15;;;24.80;58.40;;;;;;4986447;27;97971;-68
2022/07/23 09:29:18;;;;;;;68.18;53.42;;;24.80;58.40;;;;;;5009099;27;97443;-69
2022/07/23 09:31:54;;;;;;;69.25;53.17;;;24.80;58.40;;;;;;5005873;27;95711;-69
2022/07/23 09:34:30;;;;;;;68.78;53.45;;;24.80;58.40;;;;;;4999916;27;101192;-69
2022/07/23 09:37:17;;;;;;;68.25;53.47;;;24.90;58.50;;;;;;4974701;27;96456;-69
2022/07/23 09:39:45;;;;;;;67.05;53.55;;;24.90;58.50;;;;;;4976185;27;102626;-68
2022/07/23 09:42:17;;;;;;;67.85;53.70;;;24.90;58.50;;;;;;4993137;27;95065;-69
2022/07/23 09:44:46;;;;;;;71.32;53.58;;;24.90;58.40;;;;;;4994189;27;95435;-69
2022/07/23 09:47:11;;;;;;;65.47;53.45;;;24.90;58.40;;;;;;4963876;27;97799;-69
2022/07/23 09:49:37;;;;;;;68.35;53.45;;;24.90;58.40;;;;;;5003859;27;94705;-68
2022/07/23 09:52:03;;;;;;;68.97;53.85;;;25.00;58.50;;;;;;5002317;27;100746;-68
2022/07/23 09:54:34;;;;;;;66.90;53.03;;;24.90;58.30;;;;;;4987649;27;98461;-69
2022/07/23 09:57:07;;;;;;;69.28;53.72;;;24.90;58.40;;;;;;5001232;27;96644;-69
2022/07/23 09:59:35;;;;;;;67.13;53.45;;;25.00;58.40;;;;;;5003884;27;98137;-68
2022/07/23 10:02:02;;;;;;;67.70;53.63;;;25.00;58.40;;;;;;4988200;27;95705;-68
2022/07/23 10:04:29;;;;;;;69.25;53.65;;;25.00;58.40;;;;;;4989995;27;98212;-69
2022/07/23 10:06:57;;;;;;;67.00;53.67;;;25.00;58.40;;;;;;4975632;28;97309;-69
2022/07/23 10:09:32;;;;;;;69.72;53.92;;;25.00;58.40;;;;;;4992499;27;101352;-68
2022/07/23 10:12:31;;;;;;;66.93;53.15;;;25.00;58.40;;;;;;5003085;27;96230;-68
2022/07/23 10:14:50;;;;;;;65.25;53.20;;;25.00;58.40;;;;;;5000330;27;99446;-68
2022/07/23 10:17:17;;;;;;;68.10;53.28;;;25.00;58.40;;;;;;4985328;27;101570;-68
2022/07/23 10:19:43;;;;;;;65.93;52.83;;;25.00;58.40;;;;;;4977259;27;95328;-68
2022/07/23 10:22:25;;;;;;;64.85;53.20;;;25.10;58.40;;;;;;4992372;27;95057;-68
2022/07/23 10:25:05;;;;;;;66.03;53.40;;;25.00;58.40;;;;;;4985540;27;98836;-69
2022/07/23 10:27:58;;;;;;;65.73;53.23;;;25.00;58.30;;;;;;4997722;27;95497;-69
2022/07/23 10:30:42;;;;;;;65.10;52.88;;;25.10;58.30;;;;;;4988145;27;103990;-68
2022/07/23 10:33:17;;;;;;;66.10;53.22;;;25.00;58.20;;;;;;4970046;27;95741;-69
2022/07/23 10:35:47;;;;;;;66.35;53.20;;;25.00;58.20;;;;;;4994338;27;98546;-68
2022/07/23 10:38:18;;;;;;;64.68;52.90;;;25.00;58.20;;;;;;5010688;27;95131;-69
2022/07/23 10:40:59;;;;;;;66.65;53.53;;;25.10;58.20;;;;;;4991465;27;98085;-69
2022/07/23 10:43:25;;;;;;;66.07;54.03;;;25.10;58.20;;;;;;5002561;27;103538;-69
2022/07/23 10:45:52;;;;;;;65.80;53.33;;;25.10;58.20;;;;;;5002109;27;94855;-69
2022/07/23 10:48:26;;;;;;;66.93;53.33;;;25.10;58.10;;;;;;4994095;27;94831;-69
2022/07/23 10:51:18;;;;;;;66.03;52.95;;;25.20;58.10;;;;;;4990789;27;101170;-68
2022/07/23 10:54:02;;;;;;;64.55;53.20;;;25.10;58.10;;;;;;4958090;27;99551;-69
2022/07/23 10:57:09;;;;;;;65.07;53.45;;;25.10;58.10;;;;;;4979208;27;104382;-69
2022/07/23 11:00:09;;;;;;;66.57;53.10;;;25.20;58.10;;;;;;4979751;27;96911;-69
2022/07/23 11:02:36;;;;;;;64.13;53.20;;;25.10;58.10;;;;;;5001184;27;101956;-68
2022/07/23 11:05:05;;;;;;;64.60;53.10;;;25.20;58.10;;;;;;4982668;27;100520;-67
2022/07/23 11:07:31;;;;;;;65.75;53.47;;;25.20;58.10;;;;;;5002979;27;95658;-68
2022/07/23 11:09:57;;;;;;;65.20;53.45;;;25.20;58.10;;;;;;5014558;27;95773;-68
2022/07/23 11:12:23;;;;;;;65.40;53.08;;;25.20;58.00;;;;;;4998837;27;97113;-68
2022/07/23 11:15:00;;;;;;;65.85;53.28;;;25.20;58.00;;;;;;5000266;27;94680;-68
2022/07/23 11:17:27;;;;;;;65.68;53.60;;;25.20;58.00;;;;;;4997616;27;94800;-68
2022/07/23 11:20:13;;;;;;;65.05;53.30;;;25.20;58.00;;;;;;5009413;27;95372;-69
2022/07/23 11:22:44;;;;;;;63.17;52.50;;;25.20;57.90;;;;;;5006383;27;96874;-68
2022/07/23 11:25:13;;;;;;;66.45;52.50;;;25.20;57.90;;;;;;5010158;27;95086;-66
2022/07/23 11:27:41;;;;;;;64.72;53.58;;;25.20;57.90;;;;;;4987594;27;96040;-67
2022/07/23 11:30:09;;;;;;;65.10;52.78;;;25.20;57.80;;;;;;4985761;27;97808;-67
2022/07/23 11:32:38;;;;;;;67.18;53.22;;;25.20;57.80;;;;;;4988681;27;96594;-68
2022/07/23 11:35:22;;;;;;;62.85;52.63;;;25.20;57.80;;;;;;5000639;27;95101;-66
2022/07/23 11:37:53;;;;;;;65.15;53.00;;;25.30;57.80;;;;;;4977955;27;98467;-67
2022/07/23 11:40:19;;;;;;;65.65;53.28;;;25.30;57.90;;;;;;4973094;27;100634;-69
2022/07/23 11:42:59;;;;;;;64.68;53.08;;;25.30;57.80;;;;;;4993531;27;96434;-67
2022/07/23 11:45:31;;;;;;;65.75;53.88;;;25.30;57.80;;;;;;4982501;27;98038;-68
2022/07/23 11:47:57;;;;;;;66.20;53.80;;;25.30;57.70;;;;;;4994882;27;95794;-70
2022/07/23 11:50:25;;;;;;;64.22;52.90;;;25.30;57.60;;;;;;4968468;27;103437;-68
2022/07/23 11:52:51;;;;;;;63.55;52.75;;;25.30;57.70;;;;;;4951241;27;97704;-68
2022/07/23 11:55:17;;;;;;;64.82;53.33;;;25.30;57.70;;;;;;4977856;27;96049;-69
2022/07/23 11:57:43;;;;;;;65.18;53.00;;;25.30;57.70;;;;;;4992460;27;96610;-69
2022/07/23 12:00:15;;;;;;;65.55;52.58;;;25.30;57.40;;;;;;5001609;27;95330;-69
2022/07/23 12:02:43;;;;;;;65.15;52.80;;;25.40;57.60;;;;;;4983308;27;104498;-67
2022/07/23 12:05:17;;;;;;;64.25;52.70;;;25.40;57.70;;;;;;4986074;27;94467;-68
2022/07/23 12:07:44;;;;;;;63.60;52.45;;;25.40;57.70;;;;;;5007652;27;95661;-69
2022/07/23 12:10:14;;;;;;;63.13;52.65;;;25.40;57.80;;;;;;5003629;27;95997;-68
2022/07/23 12:13:26;;;;;;;62.83;52.00;;;25.40;58.40;;;;;;4997739;27;97581;-68
2022/07/23 12:15:56;;;;;;;62.47;52.40;;;25.40;57.80;;;;;;5003099;27;95288;-68
2022/07/23 12:18:24;;;;;;;63.20;52.58;;;25.40;57.80;;;;;;4997213;27;95575;-67
2022/07/23 12:20:53;;;;;;;62.92;52.22;;;25.40;57.80;;;;;;4995707;27;95075;-68
2022/07/23 12:23:20;;;;;;;62.75;52.42;;;25.50;57.90;;;;;;5004387;27;95601;-68
2022/07/23 12:25:48;;;;;;;63.33;52.65;;;25.50;57.80;;;;;;5008988;27;96732;-69
2022/07/23 12:28:26;;;;;;;64.43;52.50;;;25.50;57.90;;;;;;4993501;27;95492;-69